Meath Environmental Platform

Observations for Trim Patrick St

Time AQI Temp °C Hum % Pres Pa CO μg/m³ H₂S μg/m³ NO μg/m³ NO₂ μg/m³ O₃ μg/m³ SO₂ μg/m³ PM1 μg/m³ PM2.5 μg/m³ PM10 μg/m³
Friday 31 July 2026
13:46 2 24.1 38 68,888 0 0 1.45 8.52 73.01 6.17 2 7.94 8.73
13:45 2 24.1 39 68,898 0 2.91 1.56 8.42 92.46 7.17 2 7.13 7.85
13:44 2 24.1 39 68,886 0 0.36 1.62 9.82 99.56 6.19 2.86 8.67 9.53
13:43 2 24.1 39 68,871 0 0 1.64 8 68.55 6.48 2.86 8.66 9.53
13:42 2 24.1 40 68,880 0 0 1.68 8.91 93.62 6.69 2 7.82 8.6
13:41 2 24.1 39 68,894 0 0 1.73 8.52 69.17 6.69 2 8.67 9.53
13:40 2 24.1 40 68,910 0 1.13 1.54 8.94 95.83 7.06 2 7.83 8.61
13:39 2 24.2 39 68,873 0 0 1.65 8.74 66.84 5.2 2.86 8.69 9.56
13:38 2 24.2 40 68,880 0 10.49 1.55 8.84 91.64 8.02 2 7.8 8.58
13:37 2 24.3 40 68,886 0 18.37 1.52 52.31 71.53 7.13 2 7.8 8.58
13:36 2 24.3 40 68,869 0 11.71 1.59 23.56 92.49 7.4 2 8.63 9.5
13:35 2 24.3 39 68,875 0 3.43 1.65 9.59 86.19 6.44 2 7.9 8.69
13:34 2 24.4 39 68,884 0 3.87 1.58 12.74 93.77 6.8 2 7.13 7.85
13:33 2 24.3 38 68,896 0 0 1.51 8.84 83.77 6.33 2 7.18 7.9
13:32 2 24.3 38 68,886 0 0.27 1.46 8.94 83.04 6.22 2.86 7.95 8.74
13:31 2 24.3 38 68,900 0 2.37 1.48 12.03 87.42 6.09 2 7.95 8.75
13:30 2 24.3 39 68,886 0 2.76 1.45 8.93 94.72 7.22 2.86 8.7 9.57
13:29 2 24.3 39 68,896 0 1.7 1.39 9.78 91.39 5.91 2 8.7 9.57
13:28 2 24.2 38 68,878 0 3.38 1.56 9.54 97.91 6.41 2.86 8.74 9.61
13:27 2 24.2 38 68,890 0 1.44 1.65 8.65 97.82 5.99 2.86 8.77 9.64